• Join FlightAware (Why Join?)
  • Login
  • US Flag 
10:23AM EDT


 

Airport Tracker/Info


-or-


 

Live Flight TrackerFlight Track Log ✈ DAL5996 ✈ 24-Apr-2013 ✈ KDFW - KDTW

Flight Track Log - Related Links

Times and Time Zones

All times are in EDT time to prevent confusion due to time zone crossing. See the DAL5996 flight status page for this flight to view local times or setup timezone preferences in your user account.

Time Position Orientation Groundspeed Altitude Reporting Facility
EDT Latitude Longitude Course Direction KTS MPH feet Rate Location/Type
06:36AM 32.9333 -97.0333 North 167 192 2,900  Level Dallas / Fort Worth TRACON
06:37AM 33.0000 -97.0333 360° North 215 247 5,600 2,640 Climbing Dallas / Fort Worth TRACON
06:38AM 33.0290 -96.8000 North  Level FlightAware Approximate
06:38AM 33.1125 -97.0067 11° North 277 319 10,400  Level Fort Worth Center
06:39AM 33.1653 -96.8062 357° North  Level FlightAware Approximate
06:39AM 33.2000 -96.9592 24° Northeast 302 348 12,500  Level Fort Worth Center
06:40AM 33.3017 -96.8147 357° North  Level FlightAware Approximate
06:40AM 33.2833 -96.9164 23° Northeast 341 392 14,500  Level Fort Worth Center
06:41AM 33.4381 -96.8167 North  Level FlightAware Approximate
06:41AM 33.3811 -96.8636 24° Northeast 369 425 16,800  Level Fort Worth Center
06:42AM 33.4914 -96.7983 26° Northeast 390 449 18,700 1,920 Climbing Fort Worth Center
06:43AM 33.5808 -96.7403 28° Northeast 403 464 20,700 1,980 Climbing Fort Worth Center
06:44AM 33.6975 -96.6644 28° Northeast 415 478 22,700 1,740 Climbing Fort Worth Center
06:45AM 33.8117 -96.5911 28° Northeast 437 503 24,200 1,380 Climbing Fort Worth Center
06:46AM 33.9114 -96.5275 28° Northeast 449 517 25,500 1,440 Climbing Fort Worth Center
06:47AM 34.0300 -96.4511 28° Northeast 466 536 27,100 1,380 Climbing Fort Worth Center
06:48AM 34.1356 -96.3697 33° Northeast 466 536 28,300 1,200 Climbing Fort Worth Center
06:49AM 34.2517 -96.2778 33° Northeast 472 543 29,500 1,200 Climbing Fort Worth Center
06:50AM 34.3656 -96.1833 34° Northeast 482 555 30,700 1,140 Climbing Fort Worth Center
06:51AM 34.4794 -96.0858 35° Northeast 487 560 31,800 1,200 Climbing Fort Worth Center
06:52AM 34.5931 -95.9958 33° Northeast 487 560 33,200 1,200 Climbing Fort Worth Center
06:53AM 34.7025 -95.9031 35° Northeast 487 560 34,200 900 Climbing Fort Worth Center
06:54AM 34.8203 -95.8050 34° Northeast 493 567 35,000 480 Climbing Fort Worth Center
06:55AM 34.9358 -95.7014 36° Northeast 499 574 35,200 540 Climbing Fort Worth Center
06:58AM 35.2092 -95.4436 38° Northeast 511 588 37,000 480 Climbing Kansas City Center
06:59AM 35.3233 -95.3350 38° Northeast 516 594 37,000  Level Kansas City Center
07:00AM 35.4422 -95.2244 37° Northeast 517 595 37,000  Level Memphis Center
07:01AM 35.5592 -95.1139 38° Northeast 524 603 37,000  Level Memphis Center
07:02AM 35.6761 -95.0006 38° Northeast 529 609 37,000  Level Memphis Center
07:03AM 35.7928 -94.8869 38° Northeast 529 609 37,000  Level Memphis Center
07:04AM 35.9075 -94.7728 39° Northeast 529 609 37,000  Level Memphis Center
07:05AM 36.0261 -94.6608 37° Northeast 529 609 37,000  Level Memphis Center
07:07AM 36.2575 -94.4328 38° Northeast 539 620 37,000  Level Kansas City Center
07:08AM 36.3739 -94.3194 38° Northeast 537 618 37,000  Level Kansas City Center
07:09AM 36.4906 -94.2031 39° Northeast 537 618 37,000  Level Kansas City Center
07:10AM 36.6089 -94.0858 38° Northeast 541 623 37,000  Level Kansas City Center
07:11AM 36.7269 -93.9689 38° Northeast 542 624 37,000  Level Kansas City Center
07:12AM 36.8464 -93.8522 38° Northeast 545 627 37,000  Level Kansas City Center
07:13AM 36.9819 -93.7156 39° Northeast 543 625 37,000  Level Kansas City Center
07:14AM 37.0994 -93.5958 39° Northeast 542 624 37,000  Level Kansas City Center
07:15AM 37.2181 -93.4767 39° Northeast 544 626 37,000  Level Kansas City Center
07:16AM 37.3364 -93.3556 39° Northeast 545 627 37,000  Level Kansas City Center
07:17AM 37.4308 -93.2017 52° Northeast 554 638 37,000  Level Kansas City Center
07:18AM 37.5186 -93.0403 56° Northeast 557 641 37,000  Level Kansas City Center
07:19AM 37.6064 -92.8794 55° Northeast 557 641 37,000  Level Kansas City Center
07:20AM 37.6928 -92.7158 56° Northeast 567 652 37,000  Level Kansas City Center
07:21AM 37.7819 -92.5497 56° Northeast 574 661 37,000  Level Kansas City Center
07:22AM 37.8686 -92.3886 56° Northeast 564 649 37,000  Level Kansas City Center
07:23AM 37.9569 -92.2242 56° Northeast 563 648 37,000  Level Kansas City Center
07:24AM 38.0400 -92.0675 56° Northeast 563 648 37,000  Level Kansas City Center
07:25AM 38.1283 -91.9022 56° Northeast 565 650 37,000  Level Kansas City Center
07:26AM 38.2156 -91.7344 56° Northeast 566 651 37,000  Level Kansas City Center
07:27AM 38.3031 -91.5667 56° Northeast 566 651 37,000  Level Kansas City Center
07:28AM 38.3919 -91.3989 56° Northeast 568 654 37,000  Level Kansas City Center
07:29AM 38.4811 -91.2236 57° Northeast 569 655 37,000  Level Kansas City Center
07:30AM 38.5681 -91.0547 57° Northeast 568 654 37,000  Level Kansas City Center
07:31AM 38.6547 -90.8878 56° Northeast 563 648 37,000  Level Kansas City Center
07:32AM 38.7417 -90.7203 56° Northeast 560 644 37,000 -600 Level Kansas City Center
07:33AM 38.8439 -90.5256 56° Northeast 561 646 35,800 -1,020 Descending Kansas City Center
07:34AM 38.9272 -90.3583 57° Northeast 555 639 35,000 -420 Descending Kansas City Center
07:35AM 39.0028 -90.2103 57° Northeast 561 646 35,000  Level Kansas City Center
07:36AM 39.0883 -90.0411 57° Northeast 562 647 35,000  Level Kansas City Center
07:37AM 39.1836 -89.8500 57° Northeast 562 647 35,000  Level Kansas City Center
07:38AM 39.2583 -89.7025 57° Northeast 563 648 35,000  Level Kansas City Center
07:39AM 39.3417 -89.5328 58° Northeast 561 646 35,000  Level Kansas City Center
07:40AM 39.4292 -89.3192 62° Northeast 560 644 35,000  Level Kansas City Center
07:41AM 39.4939 -89.1603 62° Northeast 560 644 35,000  Level Kansas City Center
07:42AM 39.5647 -88.9814 63° Northeast 560 644 35,000  Level Kansas City Center
07:43AM 39.6514 -88.8117 56° Northeast 565 650 35,000  Level Kansas City Center
07:44AM 39.7400 -88.6456 55° Northeast 564 649 35,000  Level Kansas City Center
07:45AM 39.8097 -88.4650 63° Northeast 563 648 35,000  Level Kansas City Center
07:46AM 39.8919 -88.2472 64° Northeast 560 644 35,000  Level Kansas City Center
07:47AM 39.9586 -88.0669 64° Northeast 557 641 35,000  Level Kansas City Center
07:48AM 40.0261 -87.8864 64° Northeast 556 640 35,000  Level Kansas City Center
07:49AM 40.0839 -87.7306 64° Northeast 561 646 35,000  Level Indianapolis Center
07:50AM 40.1519 -87.5447 64° Northeast 563 648 35,000  Level Indianapolis Center
07:51AM 40.1758 -87.4817 64° Northeast 565 650 35,000  Level Chicago Center
07:52AM 40.2425 -87.2958 65° Northeast 561 646 35,000 -540 Level Chicago Center
07:53AM 40.3097 -87.1111 64° Northeast 558 642 33,900 -1,020 Descending Chicago Center
07:54AM 40.3764 -86.9247 65° Northeast 558 642 33,000 -480 Descending Chicago Center
07:55AM 40.4431 -86.7403 65° Northeast 555 639 33,000  Level Chicago Center
07:56AM 40.5097 -86.5550 65° Northeast 556 640 33,000  Level Chicago Center
07:57AM 40.5747 -86.3692 65° Northeast 554 638 33,000  Level Chicago Center
07:58AM 40.6403 -86.1825 65° Northeast 557 641 33,000 -360 Level Chicago Center
07:59AM 40.7103 -85.9778 66° East 554 638 32,300 -1,080 Descending Chicago Center
08:00AM 40.7714 -85.7928 66° East 554 638 30,800 -1,560 Descending Chicago Center
08:01AM 40.8328 -85.6150 65° Northeast 543 625 29,200 -1,500 Descending Chicago Center
08:02AM 40.8914 -85.4444 66° East 522 601 27,700 -1,740 Descending Chicago Center
08:03AM 40.9492 -85.2753 66° East 514 592 25,700 -2,760 Descending Chicago Center
08:04AM 41.0531 -85.1081 50° Northeast 504 580 22,100 -2,280 Descending Chicago Center
08:05AM 41.1544 -84.9992 39° Northeast 479 551 21,000 -540 Descending Chicago Center
08:06AM 41.2539 -84.8922 39° Northeast 466 536 21,000  Level Chicago Center
08:07AM 41.3536 -84.7850 39° Northeast 465 535 21,000 -60 Level Chicago Center
08:08AM 41.4506 -84.6733 41° Northeast 464 534 20,900 -600 Descending Chicago Center
08:08AM 41.4822 -84.6219 51° Northeast 461 531 20,200 -1,980 Descending Cleveland Center
08:09AM 41.5642 -84.4856 51° Northeast 461 531 18,300 -2,040 Descending Cleveland Center
08:10AM 41.6394 -84.3539 53° Northeast 454 522 16,400 -1,980 Descending Cleveland Center
08:11AM 41.6989 -84.2544 51° Northeast 431 496 15,000 -1,680 Descending Cleveland Center
08:11AM 41.7189 -84.2194 53° Northeast 441 507 14,600 -1,620 Descending Cleveland Center
08:12AM 41.7761 -84.1222 52° Northeast 385 443 13,200 -1,440 Descending Cleveland Center
08:13AM 41.8419 -84.0144 51° Northeast 363 418 12,000 -1,140 Descending Cleveland Center
08:14AM 41.9131 -83.9344 40° Northeast 329 379 11,000 -1,560 Descending Cleveland Center
08:15AM 41.9897 -83.8800 28° Northeast 319 367 8,900 -1,860 Descending Cleveland Center
08:16AM 42.0625 -83.8164 33° Northeast 315 362 7,300 -1,020 Descending Cleveland Center
08:17AM 42.0489 -83.7067 99° East 225 259 6,800 -480 Descending Cleveland Center
08:17AM 42.0489 -83.7067 99° East 250 288 6,800 -1,140 Level Cleveland Center
08:18AM 42.0342 -83.6306 105° East 214 246 5,800 -1,260 Descending Cleveland Center
08:19AM 42.0278 -83.5519 96° East 214 246 4,300 -900 Descending Cleveland Center
08:21AM 42.0989 -83.4600 44° Northeast 166 191 3,000 -720 Descending Cleveland Center
08:23AM 42.1394 -83.4311 28° Northeast 139 160 2,100 -840 Descending Cleveland Center